Time;durP1;ratioP1;P1;durP2;ratioP2;P2;SDS_P1;SDS_P2;PMS_P1;PMS_P2;Temp;Humidity;BMP_temperature;BMP_pressure;BME280_temperature;BME280_humidity;BME280_pressure;Samples;Min_cycle;Max_cycle;Signal;HPM_P1;HPM_P2
2022/11/14 00:00:55;;;;;;;12.98;6.68;;;8.90;99.90;;;;;;5069917;28;20055;-80
2022/11/14 00:03:24;;;;;;;10.32;5.75;;;9.10;99.90;;;;;;5071682;28;20063;-80
2022/11/14 00:05:51;;;;;;;66.30;23.70;;;9.20;99.90;;;;;;5071689;28;20123;-81
2022/11/14 00:08:24;;;;;;;51.00;18.30;;;9.10;99.90;;;;;;5072746;28;20046;-81
2022/11/14 00:10:57;;;;;;;21.50;9.50;;;9.00;99.90;;;;;;5071993;28;20072;-81
2022/11/14 00:13:24;;;;;;;11.15;5.95;;;9.00;99.90;;;;;;5070594;28;20040;-76
2022/11/14 00:15:54;;;;;;;11.13;5.38;;;9.00;99.90;;;;;;5072291;28;20041;-81
2022/11/14 00:18:21;;;;;;;9.93;5.40;;;8.90;99.90;;;;;;5054396;28;20093;-81
2022/11/14 00:20:52;;;;;;;13.63;4.95;;;9.00;99.90;;;;;;5071958;28;20333;-81
2022/11/14 00:23:21;;;;;;;8.95;4.18;;;9.00;99.90;;;;;;5088511;28;20082;-81
2022/11/14 00:25:48;;;;;;;9.88;4.53;;;9.20;99.90;;;;;;5069759;28;20051;-81
2022/11/14 00:28:15;;;;;;;8.65;3.85;;;9.30;99.90;;;;;;5071327;28;20074;-81
2022/11/14 00:30:48;;;;;;;4.55;3.00;;;9.50;99.90;;;;;;5070271;28;20044;-81
2022/11/14 00:33:15;;;;;;;9.23;4.93;;;9.80;99.90;;;;;;5073005;28;20137;-81
2022/11/14 00:35:57;;;;;;;25.52;10.85;;;9.80;99.90;;;;;;5070477;28;20048;-81
2022/11/14 00:38:24;;;;;;;10.07;4.88;;;9.60;99.90;;;;;;5072924;28;20404;-81
2022/11/14 00:40:56;;;;;;;39.90;15.02;;;9.60;99.90;;;;;;5072353;28;20056;-81
2022/11/14 00:43:23;;;;;;;31.92;12.75;;;9.70;99.90;;;;;;5071729;28;20067;-81
2022/11/14 00:45:49;;;;;;;12.02;6.10;;;9.40;99.90;;;;;;5071848;28;20514;-81
2022/11/14 00:48:16;;;;;;;25.75;11.30;;;9.40;99.90;;;;;;5071300;28;20028;-81
2022/11/14 00:50:43;;;;;;;92.38;36.53;;;9.40;99.90;;;;;;5069591;28;20036;-81
2022/11/14 00:53:10;;;;;;;39.95;16.90;;;9.30;99.90;;;;;;5072733;28;20040;-81
2022/11/14 00:55:37;;;;;;;50.67;20.45;;;9.20;99.90;;;;;;5075683;28;20043;-82
2022/11/14 00:58:04;;;;;;;33.60;14.18;;;9.10;99.90;;;;;;5074917;28;20131;-80
2022/11/14 01:00:32;;;;;;;17.77;9.45;;;9.10;99.90;;;;;;5073480;28;20045;-81
2022/11/14 01:02:59;;;;;;;31.40;13.20;;;9.20;99.90;;;;;;5074737;28;20098;-81
2022/11/14 01:05:26;;;;;;;11.70;5.57;;;9.20;99.90;;;;;;5074847;28;20097;-80
2022/11/14 01:07:54;;;;;;;5.95;3.63;;;9.30;99.90;;;;;;5073177;28;20484;-81
2022/11/14 01:10:21;;;;;;;14.70;6.75;;;9.60;99.90;;;;;;5074901;28;20108;-81
2022/11/14 01:12:52;;;;;;;13.77;6.15;;;9.60;99.90;;;;;;5074615;28;20044;-81
2022/11/14 01:15:19;;;;;;;;;;;9.60;99.90;;;;;;5076517;28;20072;-81
2022/11/14 01:17:45;;;;;;;12.70;4.93;;;9.80;99.90;;;;;;5074672;28;20615;-81
2022/11/14 01:20:16;;;;;;;8.63;4.15;;;9.90;99.90;;;;;;5073068;28;20071;-81
2022/11/14 01:22:47;;;;;;;9.43;3.85;;;10.00;99.90;;;;;;5075249;28;20044;-81
2022/11/14 01:25:16;;;;;;;7.72;3.75;;;10.10;99.90;;;;;;5074339;28;20483;-83
2022/11/14 01:27:43;;;;;;;7.60;4.35;;;10.20;99.90;;;;;;5074304;28;20036;-83
2022/11/14 01:30:13;;;;;;;12.73;4.10;;;10.30;99.90;;;;;;5072783;28;20036;-82
2022/11/14 01:32:44;;;;;;;15.18;6.38;;;10.20;99.90;;;;;;5074471;28;20150;-82
2022/11/14 01:35:11;;;;;;;6.75;3.78;;;10.10;99.90;;;;;;5072662;28;20028;-81
2022/11/14 01:37:38;;;;;;;9.07;4.55;;;10.10;99.90;;;;;;5074235;28;20488;-81
2022/11/14 01:40:05;;;;;;;14.90;3.88;;;10.20;99.90;;;;;;5072897;28;20059;-82
2022/11/14 01:42:32;;;;;;;13.73;7.15;;;10.30;99.90;;;;;;5073504;28;20118;-83
2022/11/14 01:44:58;;;;;;;5.97;2.92;;;10.20;99.90;;;;;;5072762;28;20052;-83
2022/11/14 01:47:31;;;;;;;5.60;2.75;;;10.10;99.90;;;;;;5072917;28;20060;-82
2022/11/14 01:50:01;;;;;;;6.22;3.20;;;10.10;99.90;;;;;;5074007;28;20068;-82
2022/11/14 01:52:34;;;;;;;5.68;2.95;;;10.10;99.90;;;;;;5073979;28;20094;-82
2022/11/14 01:55:05;;;;;;;5.82;2.70;;;10.10;99.90;;;;;;5073308;28;20510;-82
2022/11/14 01:57:40;;;;;;;7.65;3.47;;;10.10;99.90;;;;;;5073246;28;20551;-82
2022/11/14 02:00:11;;;;;;;7.10;3.75;;;10.20;99.90;;;;;;5073583;28;20446;-82
2022/11/14 02:02:38;;;;;;;6.20;2.85;;;10.10;99.90;;;;;;5072637;28;20523;-81
2022/11/14 02:05:14;;;;;;;6.28;3.20;;;10.00;99.90;;;;;;5072417;28;20515;-82
2022/11/14 02:07:41;;;;;;;9.63;3.20;;;10.10;99.90;;;;;;5073897;28;20098;-81
2022/11/14 02:10:16;;;;;;;9.57;2.92;;;10.10;99.90;;;;;;5073567;28;20078;-81
2022/11/14 02:12:44;;;;;;;6.05;2.95;;;10.00;99.90;;;;;;5073419;28;20048;-82
2022/11/14 02:15:13;;;;;;;11.45;4.65;;;9.90;99.90;;;;;;5072566;28;20123;-81
2022/11/14 02:17:43;;;;;;;7.20;2.75;;;9.90;99.90;;;;;;5072220;28;20040;-82
2022/11/14 02:20:18;;;;;;;5.68;2.92;;;9.90;99.90;;;;;;5073162;28;20040;-82
2022/11/14 02:22:44;;;;;;;4.60;2.50;;;9.90;99.90;;;;;;5073356;28;20072;-82
2022/11/14 02:25:21;;;;;;;5.50;2.67;;;10.00;99.90;;;;;;5072983;28;20040;-82
2022/11/14 02:27:51;;;;;;;4.82;2.65;;;10.00;99.90;;;;;;5072272;28;20048;-82
2022/11/14 02:30:20;;;;;;;5.68;2.80;;;10.00;99.90;;;;;;5071295;28;20044;-82
2022/11/14 02:32:47;;;;;;;5.00;2.58;;;10.20;99.90;;;;;;5073233;28;20032;-82
2022/11/14 02:35:14;;;;;;;5.70;3.25;;;10.20;99.90;;;;;;5074103;28;20076;-83
2022/11/14 02:37:41;;;;;;;7.55;2.67;;;10.30;99.90;;;;;;5073453;28;20041;-83
2022/11/14 02:40:09;;;;;;;4.85;2.85;;;10.20;99.90;;;;;;5072553;28;20062;-83
2022/11/14 02:42:38;;;;;;;6.15;3.05;;;10.30;99.90;;;;;;5074331;28;20033;-83
2022/11/14 02:45:05;;;;;;;8.25;2.55;;;10.00;99.90;;;;;;5072740;28;20079;-83
2022/11/14 02:47:32;;;;;;;5.03;2.30;;;10.00;99.90;;;;;;5072367;28;20396;-82
2022/11/14 02:50:02;;;;;;;4.78;2.28;;;9.90;99.90;;;;;;5072459;28;20138;-83
2022/11/14 02:52:28;;;;;;;8.60;4.97;;;9.80;99.90;;;;;;5070932;28;20094;-82
2022/11/14 02:55:06;;;;;;;6.38;2.35;;;9.80;99.90;;;;;;5072827;28;20040;-82
2022/11/14 02:57:33;;;;;;;7.50;2.90;;;;;;;;;;5073023;28;20499;-85
2022/11/14 02:59:59;;;;;;;5.60;2.25;;;10.40;99.90;;;;;;5071439;28;20044;-81
2022/11/14 03:02:26;;;;;;;7.15;3.75;;;10.50;99.90;;;;;;5072887;28;20046;-83
2022/11/14 03:04:52;;;;;;;4.07;2.40;;;10.60;99.90;;;;;;5072953;28;20040;-82
2022/11/14 03:07:19;;;;;;;8.10;2.83;;;10.50;99.90;;;;;;5072628;28;20440;-82
2022/11/14 03:09:46;;;;;;;6.63;2.75;;;10.70;99.90;;;;;;5084476;28;20127;-82
2022/11/14 03:12:16;;;;;;;4.75;2.38;;;10.80;99.90;;;;;;5073470;28;20074;-82
2022/11/14 03:14:43;;;;;;;7.53;3.30;;;10.80;99.90;;;;;;5072230;28;20119;-82
2022/11/14 03:17:10;;;;;;;6.75;2.33;;;10.70;99.90;;;;;;5070709;28;20044;-74
2022/11/14 03:19:38;;;;;;;8.80;2.75;;;10.60;99.90;;;;;;5072086;28;20044;-83
2022/11/14 03:22:05;;;;;;;7.57;2.72;;;10.50;99.90;;;;;;5071438;28;20048;-82
2022/11/14 03:24:32;;;;;;;4.95;2.38;;;10.40;99.90;;;;;;5074243;28;20098;-82
2022/11/14 03:26:59;;;;;;;4.22;2.20;;;10.30;99.90;;;;;;5072054;28;20048;-82
2022/11/14 03:29:25;;;;;;;10.90;3.28;;;10.30;99.90;;;;;;5071621;28;20051;-82
2022/11/14 03:31:52;;;;;;;6.68;3.05;;;10.10;99.90;;;;;;5088229;28;20040;-83
2022/11/14 03:34:19;;;;;;;4.13;2.53;;;9.80;99.90;;;;;;5070762;28;20143;-83
2022/11/14 03:36:46;;;;;;;6.70;2.92;;;9.70;99.90;;;;;;5072380;28;20167;-83
2022/11/14 03:39:18;;;;;;;10.65;4.47;;;9.70;99.90;;;;;;5070318;28;20052;-82
2022/11/14 03:41:44;;;;;;;8.85;3.95;;;9.70;99.90;;;;;;5070732;28;20577;-83
2022/11/14 03:44:12;;;;;;;7.72;4.15;;;9.70;99.90;;;;;;5071783;28;20085;-82
2022/11/14 03:46:39;;;;;;;6.07;3.47;;;9.80;99.90;;;;;;5071659;28;20437;-83
2022/11/14 03:49:06;;;;;;;11.90;4.28;;;9.80;99.90;;;;;;5071887;28;20055;-83
2022/11/14 03:51:32;;;;;;;12.20;6.15;;;10.00;99.90;;;;;;5070943;28;20029;-82
2022/11/14 03:53:59;;;;;;;5.55;3.53;;;9.70;99.90;;;;;;5072097;28;20135;-82
2022/11/14 03:56:26;;;;;;;4.53;2.33;;;9.70;99.90;;;;;;5071298;28;20124;-81
2022/11/14 03:58:54;;;;;;;7.82;2.92;;;10.20;99.90;;;;;;5072177;28;20048;-82
2022/11/14 04:01:26;;;;;;;6.75;3.15;;;9.90;99.90;;;;;;5071757;28;20044;-82
2022/11/14 04:03:55;;;;;;;5.38;3.33;;;10.00;99.90;;;;;;5072333;28;20033;-82
2022/11/14 04:06:21;;;;;;;5.13;2.60;;;9.90;99.90;;;;;;5071898;28;20033;-82
2022/11/14 04:08:50;;;;;;;4.38;2.05;;;9.90;99.90;;;;;;5070686;28;20036;-83
2022/11/14 04:11:18;;;;;;;6.82;2.30;;;9.90;99.90;;;;;;5071270;28;20047;-82
2022/11/14 04:13:44;;;;;;;6.70;2.60;;;9.90;99.90;;;;;;5069875;28;20060;-83
2022/11/14 04:16:11;;;;;;;6.78;2.25;;;9.90;99.90;;;;;;5054017;28;20488;-82
2022/11/14 04:18:38;;;;;;;7.07;3.05;;;10.00;99.90;;;;;;5071805;28;20041;-83
2022/11/14 04:21:06;;;;;;;4.28;2.40;;;10.00;99.90;;;;;;5071458;28;20056;-82
2022/11/14 04:23:33;;;;;;;4.82;2.22;;;10.00;99.90;;;;;;5071657;28;20041;-81
2022/11/14 04:25:59;;;;;;;3.58;2.13;;;10.00;99.90;;;;;;5071951;28;20040;-82
2022/11/14 04:28:26;;;;;;;5.60;2.35;;;10.30;99.90;;;;;;5074804;28;20074;-72
2022/11/14 04:30:53;;;;;;;8.43;2.92;;;10.50;99.90;;;;;;5073940;28;20465;-82
2022/11/14 04:33:21;;;;;;;4.95;2.63;;;10.30;99.90;;;;;;5075237;28;20487;-82
2022/11/14 04:35:48;;;;;;;15.50;3.05;;;10.20;99.90;;;;;;5075280;28;20090;-82
2022/11/14 04:38:15;;;;;;;3.58;2.53;;;10.10;99.90;;;;;;5074919;28;20516;-81
2022/11/14 04:40:51;;;;;;;6.03;2.85;;;10.00;99.90;;;;;;5076466;28;20056;-82
2022/11/14 04:43:21;;;;;;;4.55;2.65;;;10.00;99.90;;;;;;5077019;28;20109;-82
2022/11/14 04:45:47;;;;;;;4.90;2.75;;;9.90;99.90;;;;;;5075837;28;20575;-82
2022/11/14 04:48:14;;;;;;;7.00;3.15;;;10.00;99.90;;;;;;5074977;28;20036;-82
2022/11/14 04:50:41;;;;;;;7.55;3.38;;;10.10;99.90;;;;;;5074509;28;20055;-82
2022/11/14 04:53:09;;;;;;;5.68;3.30;;;10.00;99.90;;;;;;5074548;28;20083;-74
2022/11/14 04:55:36;;;;;;;6.60;3.78;;;10.00;99.90;;;;;;5074830;28;20050;-81
2022/11/14 04:58:03;;;;;;;7.68;3.83;;;10.10;99.90;;;;;;5074640;28;20028;-81
2022/11/14 05:00:30;;;;;;;6.28;4.10;;;10.00;99.90;;;;;;5072703;28;20094;-81
2022/11/14 05:02:59;;;;;;;11.27;5.00;;;10.10;99.90;;;;;;5075056;28;20035;-81
2022/11/14 05:05:25;;;;;;;11.50;3.97;;;10.10;99.90;;;;;;5075089;28;20499;-82
2022/11/14 05:07:54;;;;;;;7.05;3.63;;;10.00;99.90;;;;;;5075245;28;20044;-81
2022/11/14 05:10:20;;;;;;;10.98;3.85;;;10.10;99.90;;;;;;5073347;28;20047;-82
2022/11/14 05:12:47;;;;;;;8.85;4.55;;;10.20;99.90;;;;;;5074711;28;20040;-82
2022/11/14 05:15:14;;;;;;;11.73;5.20;;;10.20;99.90;;;;;;5075723;28;20044;-81
2022/11/14 05:17:43;;;;;;;12.27;4.50;;;10.10;99.90;;;;;;5073526;28;20045;-81
2022/11/14 05:20:12;;;;;;;8.93;4.57;;;10.10;99.90;;;;;;5073329;28;20380;-79
2022/11/14 05:22:39;;;;;;;12.45;5.07;;;10.00;99.90;;;;;;5074455;28;20086;-82
2022/11/14 05:25:06;;;;;;;10.73;5.60;;;9.90;99.90;;;;;;5074524;28;20115;-81
2022/11/14 05:27:35;;;;;;;10.82;5.10;;;10.00;99.90;;;;;;5074717;28;20070;-82
2022/11/14 05:30:02;;;;;;;10.57;4.60;;;10.10;99.90;;;;;;5074290;28;20089;-81
2022/11/14 05:32:28;;;;;;;11.18;4.88;;;10.00;99.90;;;;;;5073078;28;20127;-77
2022/11/14 05:34:57;;;;;;;11.77;4.68;;;10.10;99.90;;;;;;5073361;28;20547;-82
2022/11/14 05:37:24;;;;;;;12.55;5.40;;;10.00;99.90;;;;;;5074167;28;20041;-82
2022/11/14 05:39:51;;;;;;;7.40;4.07;;;10.00;99.90;;;;;;5072832;28;20032;-82
2022/11/14 05:42:18;;;;;;;8.63;4.20;;;10.10;99.90;;;;;;5073783;28;20048;-82
2022/11/14 05:44:45;;;;;;;10.85;4.30;;;10.30;99.90;;;;;;5072915;28;20041;-82
2022/11/14 05:47:14;;;;;;;8.13;4.05;;;10.30;99.90;;;;;;5072479;28;20047;-81
2022/11/14 05:49:41;;;;;;;6.97;3.80;;;10.30;99.90;;;;;;5073924;28;20075;-81
2022/11/14 05:52:09;;;;;;;7.53;3.65;;;10.30;99.90;;;;;;5074133;28;20406;-81
2022/11/14 05:54:37;;;;;;;7.18;3.53;;;10.30;99.90;;;;;;5072794;28;20446;-81
2022/11/14 05:57:10;;;;;;;8.15;4.40;;;10.20;99.90;;;;;;5074148;28;20051;-81
2022/11/14 05:59:38;;;;;;;7.80;3.85;;;10.20;99.90;;;;;;5073706;28;20496;-82
2022/11/14 06:02:05;;;;;;;9.77;3.88;;;10.30;99.90;;;;;;5073698;28;20098;-81
2022/11/14 06:04:32;;;;;;;7.20;3.85;;;10.30;99.90;;;;;;5073540;28;20102;-81
2022/11/14 06:07:00;;;;;;;14.13;5.20;;;10.40;99.90;;;;;;5075688;28;20062;-81
2022/11/14 06:09:26;;;;;;;11.43;4.88;;;10.20;99.90;;;;;;5075838;28;20039;-81
2022/11/14 06:11:53;;;;;;;11.68;4.40;;;10.20;99.90;;;;;;5074225;28;20036;-81
2022/11/14 06:14:20;;;;;;;9.52;5.28;;;10.10;99.90;;;;;;5071487;28;20044;-81
2022/11/14 06:16:46;;;;;;;9.95;4.45;;;10.00;99.90;;;;;;5073350;28;20067;-82
2022/11/14 06:19:15;;;;;;;7.97;4.55;;;9.90;99.90;;;;;;5073148;28;20040;-82
2022/11/14 06:21:42;;;;;;;7.78;3.95;;;9.90;99.90;;;;;;5072747;28;20051;-82
2022/11/14 06:24:10;;;;;;;8.90;4.50;;;10.00;99.90;;;;;;5071717;28;20070;-82
2022/11/14 06:26:36;;;;;;;15.50;7.22;;;10.10;99.90;;;;;;5073047;28;20044;-77
2022/11/14 06:29:04;;;;;;;29.42;13.30;;;10.30;99.90;;;;;;5080974;28;20043;-82
2022/11/14 06:31:31;;;;;;;29.48;14.52;;;10.30;99.90;;;;;;5075913;28;20043;-80
2022/11/14 06:33:58;;;;;;;11.93;6.28;;;10.30;99.90;;;;;;5071713;28;20052;-82
2022/11/14 06:36:26;;;;;;;15.85;7.40;;;10.30;99.90;;;;;;5073813;28;20063;-82
2022/11/14 06:38:55;;;;;;;8.52;4.22;;;10.30;99.90;;;;;;5072778;28;20075;-82
2022/11/14 06:41:24;;;;;;;21.80;10.07;;;10.30;99.90;;;;;;5072534;28;20076;-81
2022/11/14 06:43:53;;;;;;;11.43;6.40;;;10.30;99.90;;;;;;5080004;28;20561;-83
2022/11/14 06:46:21;;;;;;;12.13;5.20;;;10.40;99.90;;;;;;5092583;28;20044;-83
2022/11/14 06:48:53;;;;;;;11.27;6.50;;;10.40;99.90;;;;;;5091332;28;20034;-81
2022/11/14 06:51:20;;;;;;;9.98;6.05;;;10.40;99.90;;;;;;5074727;28;20115;-75
2022/11/14 06:53:47;;;;;;;10.88;6.40;;;10.40;99.90;;;;;;5075794;28;20056;-78
2022/11/14 06:56:16;;;;;;;9.43;5.70;;;10.40;99.90;;;;;;5072051;28;20531;-77
2022/11/14 06:58:46;;;;;;;7.72;5.05;;;10.40;99.90;;;;;;5075994;28;20043;-71
2022/11/14 07:01:17;;;;;;;9.98;6.05;;;10.30;99.90;;;;;;5087538;28;20052;-75
2022/11/14 07:03:43;;;;;;;;;;;10.40;99.90;;;;;;5073405;28;20040;-76
2022/11/14 07:06:15;;;;;;;7.47;4.22;;;10.40;99.90;;;;;;5082209;28;19977;-75
2022/11/14 07:08:43;;;;;;;8.60;5.03;;;10.30;99.90;;;;;;5081747;28;20081;-76
2022/11/14 07:11:21;;;;;;;9.77;5.18;;;10.40;99.90;;;;;;5083509;28;20047;-74
2022/11/14 07:13:53;;;;;;;7.35;4.82;;;10.40;99.90;;;;;;5073376;28;20037;-77
2022/11/14 07:16:23;;;;;;;7.13;3.78;;;10.50;99.90;;;;;;5076215;28;20123;-76
2022/11/14 07:18:49;;;;;;;6.75;4.03;;;10.60;99.90;;;;;;5072796;28;20044;-76
2022/11/14 07:21:16;;;;;;;6.13;3.70;;;10.70;99.90;;;;;;5070273;28;20091;-75
2022/11/14 07:23:44;;;;;;;6.65;3.88;;;10.80;99.90;;;;;;5081852;28;20113;-75
2022/11/14 07:26:11;;;;;;;5.43;3.58;;;11.10;99.90;;;;;;5075437;28;20048;-71
2022/11/14 07:28:44;;;;;;;6.97;3.83;;;11.00;99.90;;;;;;5072079;28;20507;-74
2022/11/14 07:31:12;;;;;;;5.95;4.03;;;10.90;99.90;;;;;;5070000;28;20416;-74
2022/11/14 07:33:40;;;;;;;8.98;3.45;;;10.90;99.90;;;;;;5071959;28;20040;-75
2022/11/14 07:36:09;;;;;;;6.88;4.35;;;11.00;99.90;;;;;;5071973;28;20041;-72
2022/11/14 07:38:38;;;;;;;7.60;3.63;;;11.00;99.90;;;;;;5071999;28;20115;-73
2022/11/14 07:41:08;;;;;;;8.38;3.80;;;11.00;99.90;;;;;;5072152;28;20048;-74
2022/11/14 07:43:35;;;;;;;8.35;4.53;;;11.00;99.90;;;;;;5072302;28;20067;-75
2022/11/14 07:46:15;;;;;;;8.25;5.40;;;11.10;99.90;;;;;;5072055;28;20120;-74
2022/11/14 07:48:43;;;;;;;7.20;4.63;;;11.10;99.90;;;;;;5071482;28;20048;-75
2022/11/14 07:51:18;;;;;;;4.80;3.30;;;11.10;99.90;;;;;;5070363;28;20056;-67
2022/11/14 07:53:45;;;;;;;7.68;3.78;;;11.10;99.90;;;;;;5071022;28;20029;-74
2022/11/14 07:56:12;;;;;;;8.70;4.13;;;11.20;99.90;;;;;;5071896;28;20048;-74
2022/11/14 07:58:40;;;;;;;6.03;3.42;;;11.30;99.90;;;;;;5072049;28;20051;-74
2022/11/14 08:01:13;;;;;;;5.97;3.63;;;11.30;99.90;;;;;;5103581;28;20135;-76
2022/11/14 08:03:41;;;;;;;6.85;4.50;;;11.40;99.90;;;;;;5077770;28;20451;-76
2022/11/14 08:06:11;;;;;;;4.63;3.25;;;11.40;99.90;;;;;;5075739;28;20055;-75
2022/11/14 08:08:42;;;;;;;5.82;3.08;;;11.50;99.90;;;;;;5075403;28;20043;-75
2022/11/14 08:11:09;;;;;;;4.88;3.22;;;11.70;99.90;;;;;;5075013;28;20446;-69
2022/11/14 08:13:36;;;;;;;5.57;2.97;;;11.80;99.90;;;;;;5075520;28;20040;-74
2022/11/14 08:16:10;;;;;;;6.72;3.40;;;11.70;99.90;;;;;;5075268;28;20135;-70
2022/11/14 08:18:39;;;;;;;6.00;3.80;;;11.80;99.90;;;;;;5076332;28;20048;-71
2022/11/14 08:21:07;;;;;;;6.18;4.00;;;11.80;99.90;;;;;;5075880;28;20119;-75
2022/11/14 08:23:36;;;;;;;15.15;6.35;;;11.80;99.90;;;;;;5075687;28;20396;-78
2022/11/14 08:26:04;;;;;;;22.83;9.10;;;11.90;99.90;;;;;;5074753;28;20044;-79
2022/11/14 08:28:32;;;;;;;29.52;11.27;;;11.90;99.90;;;;;;5075528;28;20461;-77
2022/11/14 08:31:08;;;;;;;15.05;7.47;;;11.90;99.90;;;;;;5075649;28;20044;-77
2022/11/14 08:33:35;;;;;;;11.27;6.15;;;11.90;99.90;;;;;;5074483;28;20131;-70
2022/11/14 08:36:07;;;;;;;10.15;5.45;;;11.90;99.90;;;;;;5075780;28;20044;-76
2022/11/14 08:38:36;;;;;;;5.95;3.92;;;11.90;99.90;;;;;;5077499;28;20036;-75
2022/11/14 08:41:04;;;;;;;7.28;4.00;;;11.90;99.90;;;;;;5075613;28;20091;-73
2022/11/14 08:43:31;;;;;;;5.90;3.95;;;11.90;99.90;;;;;;5074958;28;20085;-73
2022/11/14 08:46:03;;;;;;;8.55;3.67;;;11.90;99.90;;;;;;5075239;28;20068;-77
2022/11/14 08:48:32;;;;;;;5.75;3.83;;;12.00;99.90;;;;;;5075039;28;20502;-74
2022/11/14 08:51:06;;;;;;;23.35;10.55;;;12.00;99.90;;;;;;5076417;28;20040;-78
2022/11/14 08:53:34;;;;;;;10.50;4.10;;;12.00;99.90;;;;;;5077167;28;20048;-78
2022/11/14 08:56:02;;;;;;;7.97;4.50;;;12.00;99.90;;;;;;5075561;28;20040;-79
2022/11/14 08:58:31;;;;;;;14.93;8.15;;;12.00;99.90;;;;;;5074894;28;20049;-78
2022/11/14 09:01:06;;;;;;;8.60;5.45;;;12.10;99.90;;;;;;5074909;28;20049;-76
2022/11/14 09:03:35;;;;;;;11.40;4.75;;;12.10;99.90;;;;;;5073484;28;20037;-77
2022/11/14 09:06:04;;;;;;;8.43;4.78;;;12.10;99.90;;;;;;5075357;28;20044;-77
2022/11/14 09:08:31;;;;;;;19.05;7.70;;;12.10;99.90;;;;;;5073461;28;20048;-77
2022/11/14 09:11:05;;;;;;;11.48;6.22;;;12.10;99.90;;;;;;5073916;28;20039;-77
2022/11/14 09:13:33;;;;;;;10.45;3.85;;;12.10;99.90;;;;;;5076427;28;20036;-77
2022/11/14 09:16:02;;;;;;;19.42;9.40;;;12.20;99.90;;;;;;5076499;28;20048;-77
2022/11/14 09:18:29;;;;;;;29.63;12.57;;;12.20;99.90;;;;;;5074141;28;20040;-77
2022/11/14 09:21:06;;;;;;;12.70;6.65;;;12.30;99.90;;;;;;5074703;28;20109;-77
2022/11/14 09:23:35;;;;;;;12.98;6.55;;;12.30;99.90;;;;;;5073999;28;20032;-78
2022/11/14 09:26:06;;;;;;;9.07;4.40;;;12.40;99.90;;;;;;5073327;28;20072;-80
2022/11/14 09:28:36;;;;;;;8.40;4.20;;;12.40;99.90;;;;;;5073926;28;20075;-85
2022/11/14 09:31:12;;;;;;;6.75;4.30;;;12.40;99.90;;;;;;5073469;28;20503;-76
2022/11/14 09:33:42;;;;;;;7.90;4.57;;;12.40;99.90;;;;;;5074484;28;20044;-68
2022/11/14 09:36:14;;;;;;;5.67;3.43;;;12.40;99.90;;;;;;5074533;28;20090;-76
2022/11/14 09:38:45;;;;;;;6.22;3.92;;;12.40;99.90;;;;;;5074486;28;20071;-74
2022/11/14 09:41:45;;;;;;;7.75;4.20;;;12.40;99.90;;;;;;5074867;28;20135;-79
2022/11/14 09:44:18;;;;;;;5.55;3.78;;;;;;;;;;5076369;28;20035;-73
2022/11/14 09:46:52;;;;;;;7.97;3.83;;;;;;;;;;5076102;28;20576;-79
2022/11/14 09:49:37;;;;;;;9.27;4.35;;;;;;;;;;5074329;28;20455;-76
2022/11/14 09:52:26;;;;;;;8.20;4.25;;;12.80;99.90;;;;;;5074140;28;20045;-77
2022/11/14 09:55:14;;;;;;;7.63;3.90;;;12.70;99.90;;;;;;5072649;28;20400;-76
2022/11/14 09:57:45;;;;;;;7.63;4.15;;;12.80;99.90;;;;;;5073934;28;20044;-70
2022/11/14 10:00:21;;;;;;;8.57;3.97;;;12.80;99.90;;;;;;5073452;28;20049;-71
2022/11/14 10:03:20;;;;;;;5.55;3.80;;;12.80;99.90;;;;;;5074743;28;20127;-71
2022/11/14 10:06:08;;;;;;;6.78;4.55;;;12.80;99.90;;;;;;5018104;28;20040;-72
2022/11/14 10:08:53;;;;;;;24.52;13.45;;;12.80;99.90;;;;;;5073798;28;20040;-72
2022/11/14 10:11:44;;;;;;;25.42;12.40;;;12.90;99.90;;;;;;5073469;28;20098;-73
2022/11/14 10:14:39;;;;;;;12.25;5.95;;;12.90;99.90;;;;;;5073341;28;20041;-70
2022/11/14 10:17:40;;;;;;;10.40;4.13;;;13.00;99.90;;;;;;5073668;28;20491;-74
2022/11/14 10:20:40;;;;;;;25.13;14.95;;;13.20;99.90;;;;;;5073567;28;20044;-72
2022/11/14 10:23:54;;;;;;;15.43;7.97;;;13.20;99.90;;;;;;5075177;28;20044;-72
2022/11/14 10:26:31;;;;;;;9.70;5.55;;;13.20;99.90;;;;;;5074701;28;20123;-72
2022/11/14 10:29:01;;;;;;;12.52;7.30;;;13.30;99.90;;;;;;5073645;28;20497;-75
2022/11/14 10:31:51;;;;;;;7.88;4.47;;;13.40;99.90;;;;;;5073105;28;20105;-72
2022/11/14 10:34:49;;;;;;;5.70;3.35;;;13.40;99.90;;;;;;5072863;28;20048;-72
2022/11/14 10:37:24;;;;;;;5.93;3.47;;;13.40;99.90;;;;;;5071479;28;20082;-71
2022/11/14 10:39:59;;;;;;;8.27;4.82;;;13.40;99.90;;;;;;5074995;28;20131;-70
2022/11/14 10:42:50;;;;;;;12.48;6.85;;;13.40;99.90;;;;;;5074171;28;20056;-70
2022/11/14 10:45:31;;;;;;;11.02;5.90;;;13.40;99.90;;;;;;5072762;28;20480;-72
2022/11/14 10:48:13;;;;;;;8.15;4.53;;;13.50;99.90;;;;;;5072051;28;20396;-71
2022/11/14 10:51:19;;;;;;;8.15;4.15;;;13.50;99.90;;;;;;5072054;28;20048;-70
2022/11/14 10:53:49;;;;;;;6.18;3.33;;;13.50;99.90;;;;;;5071455;28;20044;-71
2022/11/14 10:56:20;;;;;;;5.38;3.20;;;13.50;99.90;;;;;;5072286;28;20408;-70
2022/11/14 10:58:48;;;;;;;6.25;3.33;;;13.40;99.90;;;;;;5072223;28;20040;-71
2022/11/14 11:01:42;;;;;;;3.20;2.63;;;13.40;99.90;;;;;;5073139;28;20078;-71
2022/11/14 11:04:25;;;;;;;9.25;4.40;;;13.50;99.90;;;;;;5074691;28;20145;-71
2022/11/14 11:06:55;;;;;;;14.13;5.10;;;13.40;99.90;;;;;;5074518;28;20573;-70
2022/11/14 11:12:18;;;;;;;10.50;4.60;;;13.50;99.90;;;;;;5073864;28;20612;-71
2022/11/14 11:14:48;;;;;;;4.97;3.47;;;13.50;99.90;;;;;;5071237;28;20040;-70
2022/11/14 11:17:19;;;;;;;8.02;3.60;;;13.50;99.90;;;;;;5072026;28;20032;-73
2022/11/14 11:19:48;;;;;;;11.63;5.47;;;13.50;99.90;;;;;;5071113;28;20519;-72
2022/11/14 11:22:37;;;;;;;23.67;9.00;;;13.60;99.90;;;;;;5069169;28;20047;-72
2022/11/14 11:25:33;;;;;;;14.80;5.90;;;13.60;99.90;;;;;;5072320;28;20504;-71
2022/11/14 11:28:19;;;;;;;16.17;6.95;;;13.70;99.90;;;;;;5059345;28;20040;-71
2022/11/14 11:31:00;;;;;;;8.75;5.00;;;13.70;99.90;;;;;;5063809;28;20044;-71
2022/11/14 11:33:35;;;;;;;17.13;5.50;;;13.70;99.90;;;;;;5069798;28;20060;-70
2022/11/14 11:36:24;;;;;;;10.25;5.07;;;13.70;99.90;;;;;;5070500;28;20127;-71
2022/11/14 11:38:50;;;;;;;11.80;5.22;;;13.70;99.90;;;;;;5070946;28;20111;-71
2022/11/14 11:41:29;;;;;;;6.72;4.18;;;13.70;99.90;;;;;;5071274;28;20056;-71
2022/11/14 11:44:17;;;;;;;19.50;6.03;;;13.70;99.90;;;;;;5070630;28;20033;-72
2022/11/14 11:47:02;;;;;;;14.30;5.55;;;13.80;99.90;;;;;;5071593;28;20040;-72
2022/11/14 11:49:51;;;;;;;10.13;4.45;;;13.80;99.90;;;;;;5070624;28;20032;-71
2022/11/14 11:52:26;;;;;;;11.25;5.07;;;13.80;99.90;;;;;;5071487;28;20047;-72
2022/11/14 11:55:19;;;;;;;10.80;5.10;;;13.80;99.90;;;;;;5072312;28;20436;-72
2022/11/14 11:58:11;;;;;;;11.77;5.85;;;13.80;99.90;;;;;;5073770;28;20067;-71
2022/11/14 12:00:40;;;;;;;11.10;4.40;;;13.80;99.90;;;;;;5070939;28;20093;-72
2022/11/14 12:03:12;;;;;;;9.40;4.13;;;13.80;99.90;;;;;;5070602;28;20045;-72
2022/11/14 12:05:57;;;;;;;8.77;4.90;;;13.80;99.90;;;;;;5071890;28;20044;-72
2022/11/14 12:08:34;;;;;;;13.15;5.45;;;13.80;99.90;;;;;;5071588;28;20044;-72
2022/11/14 12:11:03;;;;;;;9.70;5.20;;;13.90;99.90;;;;;;5073010;28;20041;-72
2022/11/14 12:13:53;;;;;;;10.25;4.78;;;13.90;99.90;;;;;;5071508;28;20066;-72
2022/11/14 12:16:45;;;;;;;9.35;5.13;;;13.90;99.90;;;;;;5070927;28;20571;-72
2022/11/14 12:19:25;;;;;;;9.05;4.47;;;13.90;99.90;;;;;;5071154;28;20094;-72
2022/11/14 12:22:23;;;;;;;8.90;4.75;;;14.00;99.90;;;;;;5073313;28;20046;-72
2022/11/14 12:25:21;;;;;;;12.38;5.88;;;14.00;99.90;;;;;;5073314;28;20047;-72
2022/11/14 12:28:34;;;;;;;7.28;4.32;;;14.00;99.90;;;;;;5073054;28;20041;-72
2022/11/14 12:31:04;;;;;;;8.25;4.45;;;14.60;99.90;;;;;;5071209;28;20037;-72
2022/11/14 12:33:50;;;;;;;12.00;5.35;;;14.70;99.90;;;;;;5072625;28;20109;-72
2022/11/14 12:36:17;;;;;;;10.25;3.80;;;15.10;99.90;;;;;;5070111;28;20044;-72
2022/11/14 12:38:52;;;;;;;7.43;4.20;;;14.90;99.90;;;;;;5071208;28;20093;-72
2022/11/14 12:41:30;;;;;;;11.10;4.50;;;15.00;99.90;;;;;;5069970;28;20051;-72
2022/11/14 12:44:19;;;;;;;5.10;3.47;;;14.80;99.90;;;;;;5071127;28;20127;-72
2022/11/14 12:47:04;;;;;;;13.02;5.10;;;14.70;99.90;;;;;;5070292;28;20583;-72
2022/11/14 12:49:52;;;;;;;12.82;6.25;;;14.50;99.90;;;;;;5074692;28;20120;-72
2022/11/14 12:52:52;;;;;;;17.33;6.10;;;14.40;99.90;;;;;;5076940;28;20506;-72
2022/11/14 12:55:25;;;;;;;11.38;4.43;;;14.30;99.90;;;;;;5052005;28;20040;-72
2022/11/14 12:58:12;;;;;;;7.18;3.60;;;14.30;99.90;;;;;;5074565;28;20032;-72
2022/11/14 13:00:48;;;;;;;7.80;4.28;;;14.30;99.90;;;;;;5074766;28;20431;-72
2022/11/14 13:03:32;;;;;;;10.07;3.47;;;14.30;99.90;;;;;;5076479;28;20048;-72
2022/11/14 13:06:29;;;;;;;7.63;4.20;;;14.30;99.90;;;;;;5075547;28;20422;-72
2022/11/14 13:09:29;;;;;;;7.88;3.53;;;14.20;99.90;;;;;;5076361;28;20109;-72
2022/11/14 13:23:28;;;;;;;5.15;3.38;;;14.10;99.90;;;;;;5075878;28;20134;-72
2022/11/14 13:26:14;;;;;;;7.65;3.78;;;14.10;99.90;;;;;;5073846;28;20102;-72